createdAt,value
2018-09-03T00:02:28.647Z,3.60
2018-09-03T00:04:57.745Z,3.50
2018-09-03T00:07:26.697Z,3.53
2018-09-03T00:09:55.508Z,2.63
2018-09-03T00:12:24.681Z,3.20
2018-09-03T00:14:53.892Z,3.47
2018-09-03T00:17:23.228Z,2.83
2018-09-03T00:19:52.158Z,3.10
2018-09-03T00:22:21.293Z,2.90
2018-09-03T00:24:50.525Z,3.57
2018-09-03T00:27:19.471Z,3.13
2018-09-03T00:29:48.640Z,2.90
2018-09-03T00:32:23.093Z,2.70
2018-09-03T00:34:57.612Z,2.70
2018-09-03T00:37:32.133Z,3.33
2018-09-03T00:40:06.600Z,3.33
2018-09-03T00:42:40.812Z,2.90
2018-09-03T00:45:15.187Z,3.40
2018-09-03T00:47:44.428Z,3.53
2018-09-03T00:50:13.447Z,3.40
2018-09-03T00:52:42.637Z,3.00
2018-09-03T00:55:11.893Z,2.73
2018-09-03T00:57:40.807Z,3.10
2018-09-03T01:00:09.964Z,3.70
2018-09-03T01:02:39.212Z,3.73
2018-09-03T01:05:08.459Z,3.33
2018-09-03T01:07:37.767Z,3.73
2018-09-03T01:10:07.057Z,3.50
2018-09-03T01:12:36.326Z,3.40
2018-09-03T01:15:05.640Z,3.57
2018-09-03T01:17:34.566Z,3.50
2018-09-03T01:20:03.750Z,3.30
2018-09-03T01:22:33.025Z,3.37
2018-09-03T01:25:02.418Z,3.83
2018-09-03T01:27:31.723Z,3.93
2018-09-03T01:30:00.639Z,3.87
2018-09-03T01:32:29.800Z,4.03
2018-09-03T01:34:59.033Z,4.07
2018-09-03T01:37:28.371Z,3.87
2018-09-03T01:39:57.643Z,4.13
2018-09-03T01:42:26.606Z,3.97
2018-09-03T01:44:55.816Z,3.60
2018-09-03T01:47:25.211Z,3.10
2018-09-03T01:49:54.545Z,3.77
2018-09-03T01:52:23.927Z,3.17
2018-09-03T01:54:52.918Z,3.47
2018-09-03T01:57:21.723Z,3.50
2018-09-03T01:59:50.872Z,3.97
2018-09-03T02:02:20.168Z,3.90
2018-09-03T02:04:49.421Z,4.23
2018-09-03T02:07:18.675Z,3.27
2018-09-03T02:09:47.590Z,3.40
2018-09-03T02:12:16.784Z,3.90
2018-09-03T02:14:47.532Z,3.10
2018-09-03T02:17:16.889Z,3.30
2018-09-03T02:19:46.121Z,3.70
2018-09-03T02:22:15.364Z,3.20
2018-09-03T02:24:44.632Z,3.20
2018-09-03T02:27:13.877Z,3.23
2018-09-03T02:29:42.843Z,3.03
2018-09-03T02:32:11.957Z,3.60
2018-09-03T02:34:41.256Z,3.40
2018-09-03T02:37:10.500Z,3.90
2018-09-03T02:39:39.743Z,3.63
2018-09-03T02:42:08.711Z,3.40
2018-09-03T02:44:37.903Z,3.20
2018-09-03T02:47:07.336Z,3.30
2018-09-03T02:49:36.599Z,3.77
2018-09-03T02:52:05.591Z,3.30
2018-09-03T02:54:34.732Z,3.30
2018-09-03T02:57:03.983Z,3.73
2018-09-03T02:59:33.251Z,3.67
2018-09-03T03:02:02.540Z,3.87
2018-09-03T03:04:31.804Z,4.00
2018-09-03T03:07:00.705Z,3.70
2018-09-03T03:09:29.833Z,3.97
2018-09-03T03:11:59.063Z,3.80
2018-09-03T03:14:28.088Z,4.17
2018-09-03T03:16:57.171Z,4.23
2018-09-03T03:19:26.512Z,3.20
2018-09-03T03:21:55.784Z,3.60
2018-09-03T03:24:25.047Z,3.47
2018-09-03T03:26:54.280Z,3.57
2018-09-03T03:29:23.536Z,3.53
2018-09-03T03:31:52.814Z,4.20
2018-09-03T03:34:22.038Z,3.47
2018-09-03T03:36:51.366Z,3.50
2018-09-03T03:39:20.691Z,3.50
2018-09-03T03:41:50.090Z,3.47
2018-09-03T03:44:19.087Z,3.80
2018-09-03T03:46:48.255Z,4.33
2018-09-03T03:49:17.562Z,4.10
2018-09-03T03:51:46.813Z,3.97
2018-09-03T03:54:15.775Z,4.03
2018-09-03T03:56:44.650Z,4.57
2018-09-03T03:59:13.462Z,4.43
2018-09-03T04:01:42.605Z,3.70
2018-09-03T04:04:11.896Z,4.30
2018-09-03T04:06:41.151Z,3.97
2018-09-03T04:09:10.956Z,3.43
2018-09-03T04:11:40.895Z,3.60
2018-09-03T04:14:10.139Z,3.73
2018-09-03T04:16:39.456Z,4.27
2018-09-03T04:19:08.392Z,3.93
2018-09-03T04:21:37.343Z,3.87
2018-09-03T04:24:06.594Z,4.40
2018-09-03T04:26:35.865Z,4.53
2018-09-03T04:29:05.276Z,4.57
2018-09-03T04:31:34.605Z,4.70
2018-09-03T04:34:03.583Z,4.03
2018-09-03T04:36:32.827Z,5.03
2018-09-03T04:39:02.119Z,5.00
2018-09-03T04:41:31.388Z,5.67
2018-09-03T04:44:00.725Z,4.50
2018-09-03T04:46:29.735Z,4.40
2018-09-03T04:48:58.934Z,4.50
2018-09-03T04:51:28.245Z,4.40
2018-09-03T04:53:57.633Z,4.20
2018-09-03T04:56:26.692Z,4.73
2018-09-03T04:58:55.576Z,4.80
2018-09-03T05:01:25.684Z,5.17
2018-09-03T05:03:55.006Z,4.80
2018-09-03T05:06:24.340Z,3.80
2018-09-03T05:08:53.673Z,5.20
2018-09-03T05:11:23.005Z,5.43
2018-09-03T05:13:52.307Z,5.17
2018-09-03T05:16:21.621Z,4.90
2018-09-03T05:18:50.905Z,4.73
2018-09-03T05:21:19.883Z,5.03
2018-09-03T05:23:48.698Z,5.40
2018-09-03T05:26:17.952Z,5.20
2018-09-03T05:28:47.189Z,4.97
2018-09-03T05:31:16.496Z,5.30
2018-09-03T05:33:45.722Z,4.00
2018-09-03T05:36:14.785Z,4.10
2018-09-03T05:38:43.969Z,5.23
2018-09-03T05:41:13.229Z,4.93
2018-09-03T05:43:42.790Z,4.83
2018-09-03T05:46:11.698Z,5.30
2018-09-03T05:48:40.569Z,5.13
2018-09-03T05:51:09.384Z,5.10
2018-09-03T05:53:38.530Z,5.37
2018-09-03T05:56:07.886Z,5.23
2018-09-03T05:58:37.158Z,6.37
2018-09-03T06:01:06.505Z,5.70
2018-09-03T06:03:37.487Z,5.80
2018-09-03T06:06:06.751Z,5.87
2018-09-03T06:08:36.024Z,5.80
2018-09-03T06:11:05.374Z,6.23
2018-09-03T06:13:34.587Z,7.03
2018-09-03T06:16:03.880Z,5.97
2018-09-03T06:18:33.183Z,6.10
2018-09-03T06:21:02.492Z,6.23
2018-09-03T06:23:31.756Z,6.07
2018-09-03T06:26:01.096Z,6.43
2018-09-03T06:28:30.031Z,7.17
2018-09-03T06:30:59.135Z,7.40
2018-09-03T06:33:28.393Z,7.60
2018-09-03T06:35:57.752Z,6.57
2018-09-03T06:38:27.104Z,6.40
2018-09-03T06:40:56.059Z,6.57
2018-09-03T06:43:25.019Z,6.73
2018-09-03T06:45:54.220Z,7.80
2018-09-03T06:48:23.445Z,7.40
2018-09-03T06:50:52.734Z,7.63
2018-09-03T06:53:21.806Z,7.60
2018-09-03T06:55:50.916Z,8.23
2018-09-03T06:58:19.959Z,7.83
2018-09-03T07:00:49.115Z,8.13
2018-09-03T07:03:18.357Z,7.70
2018-09-03T07:05:47.683Z,8.13
2018-09-03T07:08:16.936Z,8.80
2018-09-03T07:10:46.206Z,8.33
2018-09-03T07:13:15.460Z,9.47
2018-09-03T07:15:44.686Z,8.53
2018-09-03T07:18:13.937Z,8.40
2018-09-03T07:20:43.163Z,8.73
2018-09-03T07:23:12.424Z,8.37
2018-09-03T07:25:41.442Z,9.17
2018-09-03T07:28:10.318Z,8.63
2018-09-03T07:30:39.593Z,8.33
2018-09-03T07:33:08.850Z,8.73
2018-09-03T07:35:38.078Z,7.70
2018-09-03T07:38:07.087Z,8.53
2018-09-03T07:40:36.289Z,9.20
2018-09-03T07:43:05.755Z,9.33
2018-09-03T07:45:34.991Z,8.87
2018-09-03T07:48:04.513Z,8.75
2018-09-03T07:50:33.447Z,8.50
2018-09-03T07:53:02.671Z,7.92
2018-09-03T07:55:31.906Z,8.63
2018-09-03T07:58:01.224Z,8.80
2018-09-03T08:00:30.456Z,8.50
2018-09-03T08:02:59.478Z,7.70
2018-09-03T08:05:28.654Z,7.58
2018-09-03T08:07:58.222Z,7.97
2018-09-03T08:10:27.180Z,9.23
2018-09-03T08:12:56.376Z,8.85
2018-09-03T08:15:25.334Z,8.43
2018-09-03T08:17:54.550Z,8.85
2018-09-03T08:20:23.820Z,8.28
2018-09-03T08:22:53.053Z,8.50
2018-09-03T08:25:22.364Z,8.67
2018-09-03T08:27:51.332Z,9.05
2018-09-03T08:30:20.543Z,8.50
2018-09-03T08:32:49.851Z,8.70
2018-09-03T08:35:19.075Z,9.13
2018-09-03T08:37:48.399Z,8.08
2018-09-03T08:40:17.362Z,8.75
2018-09-03T08:42:46.497Z,9.30
2018-09-03T08:45:15.734Z,9.20
2018-09-03T08:47:45.036Z,8.78
2018-09-03T08:50:14.348Z,8.67
2018-09-03T08:52:43.572Z,9.63
2018-09-03T08:55:12.866Z,9.03
2018-09-03T08:57:42.153Z,8.83
2018-09-03T09:00:11.163Z,9.48
2018-09-03T09:02:40.291Z,9.67
2018-09-03T09:05:09.606Z,9.60
2018-09-03T09:07:38.832Z,9.73
2018-09-03T09:10:09.341Z,10.23
2018-09-03T09:12:38.525Z,9.97
2018-09-03T09:15:07.811Z,10.85
2018-09-03T09:17:37.179Z,10.20
2018-09-03T09:20:06.528Z,11.22
2018-09-03T09:22:35.558Z,9.47
2018-09-03T09:25:04.995Z,9.30
2018-09-03T09:27:33.927Z,9.80
2018-09-03T09:30:03.430Z,9.53
2018-09-03T09:32:32.802Z,11.55
2018-09-03T09:35:01.800Z,11.33
2018-09-03T09:37:30.657Z,11.10
2018-09-03T09:39:59.773Z,11.10
2018-09-03T09:42:29.077Z,10.20
2018-09-03T09:44:58.312Z,10.28
2018-09-03T09:47:27.561Z,10.20
2018-09-03T09:49:56.863Z,10.28
2018-09-03T09:52:26.092Z,8.73
2018-09-03T09:54:55.463Z,10.32
2018-09-03T09:57:24.758Z,10.30
2018-09-03T09:59:54.037Z,10.00
2018-09-03T10:02:23.265Z,10.55
2018-09-03T10:04:52.195Z,11.65
2018-09-03T10:07:21.485Z,9.43
2018-09-03T10:09:50.748Z,9.55
2018-09-03T10:12:36.045Z,8.18
2018-09-03T10:15:05.358Z,8.28
2018-09-03T10:17:34.614Z,9.78
2018-09-03T10:20:03.992Z,9.85
2018-09-03T10:22:33.310Z,8.45
2018-09-03T10:25:02.322Z,8.95
2018-09-03T10:27:31.509Z,9.93
2018-09-03T10:30:00.743Z,10.98
2018-09-03T10:32:31.096Z,7.42
2018-09-03T10:35:00.354Z,8.90
2018-09-03T10:37:29.612Z,7.55
2018-09-03T10:39:58.920Z,10.32
2018-09-03T10:42:28.693Z,8.93
2018-09-03T10:44:57.960Z,10.18
2018-09-03T10:47:26.889Z,9.78
2018-09-03T10:49:55.702Z,8.78
2018-09-03T10:52:24.864Z,9.65
2018-09-03T10:54:53.868Z,8.40
2018-09-03T10:57:23.005Z,8.50
2018-09-03T10:59:51.999Z,8.63
2018-09-03T11:02:21.140Z,8.93
2018-09-03T11:04:50.369Z,7.60
2018-09-03T11:07:19.323Z,7.78
2018-09-03T11:09:48.444Z,8.23
2018-09-03T11:12:17.724Z,8.55
2018-09-03T11:14:46.980Z,7.78
2018-09-03T11:17:16.229Z,8.23
2018-09-03T11:19:49.875Z,7.35
2018-09-03T11:22:19.188Z,10.25
2018-09-03T11:24:48.116Z,8.48
2018-09-03T11:27:17.244Z,8.55
2018-09-03T11:29:46.579Z,10.08
2018-09-03T11:32:15.860Z,11.03
2018-09-03T11:34:45.419Z,11.55
2018-09-03T11:37:14.736Z,10.80
2018-09-03T11:39:43.676Z,11.00
2018-09-03T11:42:12.497Z,10.65
2018-09-03T11:44:41.619Z,11.08
2018-09-03T11:47:10.918Z,12.43
2018-09-03T11:49:40.169Z,11.20
2018-09-03T11:52:09.445Z,13.03
2018-09-03T11:54:38.746Z,14.23
2018-09-03T11:57:09.740Z,13.08
2018-09-03T11:59:38.968Z,13.95
2018-09-03T12:02:07.938Z,11.30
2018-09-03T12:04:37.053Z,14.03
2018-09-03T12:07:06.652Z,15.78
2018-09-03T12:09:35.876Z,16.02
2018-09-03T12:12:05.172Z,17.10
2018-09-03T12:14:37.040Z,15.60
2018-09-03T12:17:06.693Z,16.48
2018-09-03T12:19:35.978Z,15.83
2018-09-03T12:22:04.894Z,15.08
2018-09-03T12:24:33.711Z,14.60
2018-09-03T12:27:02.509Z,11.22
2018-09-03T12:29:31.671Z,13.28
2018-09-03T12:32:01.189Z,14.63
2018-09-03T12:34:30.149Z,17.05
2018-09-03T12:36:59.001Z,20.70
2018-09-03T12:39:29.059Z,20.62
2018-09-03T12:41:57.972Z,19.02
2018-09-03T12:44:27.155Z,19.82
2018-09-03T12:46:56.406Z,19.45
2018-09-03T12:49:25.351Z,21.25
2018-09-03T12:51:54.477Z,15.28
2018-09-03T12:54:23.741Z,15.88
2018-09-03T12:56:53.074Z,18.02
2018-09-03T12:59:22.307Z,14.45
2018-09-03T13:01:51.266Z,19.17
2018-09-03T13:04:20.456Z,18.50
2018-09-03T13:06:49.745Z,21.12
2018-09-03T13:09:19.031Z,15.48
2018-09-03T13:11:48.323Z,18.52
2018-09-03T13:14:17.272Z,20.65
2018-09-03T13:16:46.418Z,19.52
2018-09-03T13:19:16.182Z,18.92
2018-09-03T13:21:45.145Z,20.05
2018-09-03T13:24:14.260Z,18.80
2018-09-03T13:26:43.613Z,17.20
2018-09-03T13:29:12.871Z,18.07
2018-09-03T13:31:42.117Z,20.32
2018-09-03T13:34:11.554Z,13.62
2018-09-03T13:36:40.898Z,15.40
2018-09-03T13:39:10.646Z,24.30
2018-09-03T13:41:39.887Z,22.32
2018-09-03T13:44:08.840Z,27.45
2018-09-03T13:46:37.966Z,19.67
2018-09-03T13:49:07.241Z,22.48
2018-09-03T13:51:36.159Z,22.62
2018-09-03T13:54:05.317Z,27.13
2018-09-03T13:56:34.663Z,19.30
2018-09-03T13:59:03.940Z,25.08
2018-09-03T14:01:34.342Z,22.55
2018-09-03T14:04:03.477Z,22.82
2018-09-03T14:06:32.784Z,22.00
2018-09-03T14:09:02.052Z,25.25
2018-09-03T14:11:31.471Z,23.60
2018-09-03T14:14:00.457Z,20.20
2018-09-03T14:16:29.616Z,20.72
2018-09-03T14:18:58.892Z,17.45
2018-09-03T14:21:28.160Z,19.02
2018-09-03T14:23:57.467Z,18.60
2018-09-03T14:26:26.556Z,15.05
2018-09-03T14:28:55.688Z,18.07
2018-09-03T14:31:24.926Z,20.32
2018-09-03T14:33:54.428Z,19.42
2018-09-03T14:36:23.556Z,18.23
2018-09-03T14:38:52.511Z,17.75
2018-09-03T14:41:21.643Z,15.43
2018-09-03T14:43:50.950Z,22.32
2018-09-03T14:46:20.180Z,17.30
2018-09-03T14:48:49.483Z,19.85
2018-09-03T14:51:18.789Z,19.02
2018-09-03T14:53:48.080Z,15.50
2018-09-03T14:56:17.334Z,16.60
2018-09-03T14:58:46.617Z,19.87
2018-09-03T15:01:15.869Z,19.48
2018-09-03T15:03:46.260Z,19.60
2018-09-03T15:06:15.120Z,20.37
2018-09-03T15:08:44.308Z,21.45
2018-09-03T15:11:13.556Z,18.85
2018-09-03T15:13:42.797Z,19.62
2018-09-03T15:16:12.164Z,20.88
2018-09-03T15:18:41.431Z,21.20
2018-09-03T15:21:10.712Z,22.45
2018-09-03T15:23:39.931Z,21.02
2018-09-03T15:26:09.263Z,20.90
2018-09-03T15:28:38.460Z,19.37
2018-09-03T15:31:07.728Z,21.30
2018-09-03T15:33:37.020Z,24.23
2018-09-03T15:36:06.510Z,21.20
2018-09-03T15:38:35.409Z,18.92
2018-09-03T15:41:04.869Z,22.55
2018-09-03T15:43:34.120Z,24.77
2018-09-03T15:46:03.403Z,22.45
2018-09-03T15:48:32.683Z,23.90
2018-09-03T15:51:01.667Z,25.80
2018-09-03T15:53:30.812Z,25.45
2018-09-03T15:56:01.494Z,28.65
2018-09-03T15:58:31.171Z,30.95
2018-09-03T16:01:00.711Z,32.78
2018-09-03T16:03:29.613Z,34.25
2018-09-03T16:05:59.090Z,34.30
2018-09-03T16:08:28.357Z,29.20
2018-09-03T16:10:57.656Z,34.30
2018-09-03T16:13:26.877Z,34.38
2018-09-03T16:15:56.172Z,29.55
2018-09-03T16:18:25.477Z,29.50
2018-09-03T16:20:54.776Z,31.37
2018-09-03T16:23:24.011Z,27.65
2018-09-03T16:25:53.299Z,30.02
2018-09-03T16:28:22.538Z,30.60
2018-09-03T16:30:51.828Z,30.25
2018-09-03T16:33:21.142Z,24.90
2018-09-03T16:35:50.584Z,28.90
2018-09-03T16:38:19.815Z,24.67
2018-09-03T16:40:49.043Z,24.80
2018-09-03T16:43:18.323Z,23.98
2018-09-03T16:45:47.597Z,21.10
2018-09-03T16:48:16.551Z,23.98
2018-09-03T16:50:45.703Z,26.02
2018-09-03T16:53:14.955Z,20.30
2018-09-03T16:55:44.264Z,22.85
2018-09-03T16:58:13.610Z,29.45
2018-09-03T17:00:42.564Z,30.00
2018-09-03T17:03:11.729Z,28.35
2018-09-03T17:05:41.265Z,29.82
2018-09-03T17:08:10.711Z,25.32
2018-09-03T17:10:39.930Z,24.02
2018-09-03T17:13:08.865Z,25.82
2018-09-03T17:15:38.040Z,29.82
2018-09-03T17:18:07.327Z,23.12
2018-09-03T17:20:36.609Z,26.73
2018-09-03T17:23:05.919Z,24.95
2018-09-03T17:25:34.854Z,25.20
2018-09-03T17:28:04.030Z,22.82
2018-09-03T17:30:33.292Z,25.10
2018-09-03T17:33:02.543Z,23.52
2018-09-03T17:35:31.860Z,26.50
2018-09-03T17:38:00.783Z,28.12
2018-09-03T17:40:29.956Z,21.33
2018-09-03T17:42:59.232Z,21.97
2018-09-03T17:45:28.177Z,26.10
2018-09-03T17:47:57.458Z,28.38
2018-09-03T17:50:26.759Z,22.62
2018-09-03T17:52:55.712Z,25.68
2018-09-03T17:55:24.901Z,26.75
2018-09-03T17:57:54.244Z,23.02
2018-09-03T18:00:23.631Z,24.85
2018-09-03T18:02:52.951Z,24.77
2018-09-03T18:05:22.371Z,17.55
2018-09-03T18:07:51.831Z,23.38
2018-09-03T18:10:23.375Z,20.72
2018-09-03T18:12:52.398Z,17.57
2018-09-03T18:15:21.304Z,27.32
2018-09-03T18:17:50.527Z,21.60
2018-09-03T18:20:19.896Z,17.90
2018-09-03T18:22:49.179Z,16.70
2018-09-03T18:25:18.529Z,18.60
2018-09-03T18:27:47.866Z,21.87
2018-09-03T18:30:16.989Z,17.55
2018-09-03T18:32:45.848Z,17.57
2018-09-03T18:35:15.074Z,16.80
2018-09-03T18:37:44.347Z,16.57
2018-09-03T18:40:13.380Z,17.77
2018-09-03T18:42:42.658Z,17.87
2018-09-03T18:45:11.944Z,17.20
2018-09-03T18:47:41.309Z,20.88
2018-09-03T18:50:12.082Z,22.70
2018-09-03T18:52:41.410Z,18.20
2018-09-03T18:55:10.324Z,22.25
2018-09-03T18:57:39.519Z,16.97
2018-09-03T19:00:09.044Z,21.93
2018-09-03T19:02:37.988Z,15.95
2018-09-03T19:05:07.021Z,17.15
2018-09-03T19:07:36.176Z,17.20
2018-09-03T19:10:05.531Z,19.40
2018-09-03T19:12:37.675Z,20.02
2018-09-03T19:15:07.720Z,16.37
2018-09-03T19:17:36.803Z,17.82
2018-09-03T19:20:06.082Z,18.20
2018-09-03T19:22:35.374Z,20.45
2018-09-03T19:25:04.720Z,16.93
2018-09-03T19:27:33.721Z,16.80
2018-09-03T19:30:02.855Z,15.78
2018-09-03T19:32:32.221Z,21.85
2018-09-03T19:35:01.237Z,16.73
2018-09-03T19:37:30.424Z,16.27
2018-09-03T19:39:59.792Z,24.02
2018-09-03T19:42:28.756Z,21.17
2018-09-03T19:44:57.897Z,24.85
2018-09-03T19:47:27.155Z,22.10
2018-09-03T19:49:56.456Z,21.57
2018-09-03T19:52:26.348Z,22.15
2018-09-03T19:54:55.617Z,27.45
2018-09-03T19:57:24.895Z,28.27
2018-09-03T19:59:54.206Z,28.02
2018-09-03T20:02:23.480Z,20.30
2018-09-03T20:04:52.714Z,27.95
2018-09-03T20:07:22.393Z,19.12
2018-09-03T20:09:51.620Z,23.87
2018-09-03T20:12:20.933Z,20.88
2018-09-03T20:14:52.217Z,19.95
2018-09-03T20:17:22.753Z,17.60
2018-09-03T20:19:52.553Z,17.42
2018-09-03T20:22:21.837Z,18.57
2018-09-03T20:24:51.093Z,20.90
2018-09-03T20:27:20.358Z,16.77
2018-09-03T20:29:49.623Z,24.75
2018-09-03T20:32:18.872Z,25.17
2018-09-03T20:34:48.101Z,19.80
2018-09-03T20:37:17.174Z,20.50
2018-09-03T20:39:46.335Z,25.30
2018-09-03T20:42:15.826Z,24.60
2018-09-03T20:44:45.368Z,23.75
2018-09-03T20:47:14.473Z,15.50
2018-09-03T20:49:43.775Z,17.90
2018-09-03T20:52:12.982Z,15.80
2018-09-03T20:54:42.125Z,23.20
2018-09-03T20:57:11.140Z,23.02
2018-09-03T20:59:40.382Z,17.10
2018-09-03T21:02:09.757Z,19.25
2018-09-03T21:04:39.052Z,20.77
2018-09-03T21:07:08.177Z,19.70
2018-09-03T21:09:37.756Z,16.40
2018-09-03T21:12:07.193Z,21.77
2018-09-03T21:14:36.603Z,15.00
2018-09-03T21:17:08.824Z,18.98
2018-09-03T21:19:38.115Z,18.87
2018-09-03T21:22:07.417Z,18.80
2018-09-03T21:24:36.775Z,25.23
2018-09-03T21:27:06.145Z,21.77
2018-09-03T21:29:35.418Z,21.17
2018-09-03T21:32:04.452Z,17.50
2018-09-03T21:34:33.597Z,19.42
2018-09-03T21:37:02.857Z,20.60
2018-09-03T21:39:32.242Z,20.15
2018-09-03T21:42:01.634Z,24.43
2018-09-03T21:44:30.976Z,24.15
2018-09-03T21:47:00.327Z,23.70
2018-09-03T21:49:29.720Z,19.35
2018-09-03T21:51:58.985Z,25.50
2018-09-03T21:54:28.326Z,25.50
2018-09-03T21:56:57.339Z,23.60
2018-09-03T21:59:26.270Z,23.00
2018-09-03T22:01:55.498Z,19.02
2018-09-03T22:04:24.871Z,24.90
2018-09-03T22:06:53.852Z,19.57
2018-09-03T22:09:23.094Z,24.98
2018-09-03T22:11:52.429Z,22.37
2018-09-03T22:14:21.403Z,20.43
2018-09-03T22:16:50.581Z,26.07
2018-09-03T22:19:22.041Z,24.45
2018-09-03T22:21:51.311Z,24.60
2018-09-03T22:24:20.278Z,22.67
2018-09-03T22:26:49.893Z,23.42
2018-09-03T22:29:18.847Z,25.80
2018-09-03T22:31:48.019Z,25.40
2018-09-03T22:34:17.004Z,28.32
2018-09-03T22:36:46.139Z,30.35
2018-09-03T22:39:15.140Z,30.45
2018-09-03T22:41:44.301Z,29.70
2018-09-03T22:44:13.299Z,28.47
2018-09-03T22:46:42.460Z,26.57
2018-09-03T22:49:11.826Z,30.90
2018-09-03T22:51:41.652Z,31.12
2018-09-03T22:54:10.598Z,31.57
2018-09-03T22:56:39.719Z,29.03
2018-09-03T22:59:08.983Z,29.50
2018-09-03T23:01:38.321Z,29.43
2018-09-03T23:04:07.268Z,30.50
2018-09-03T23:06:36.425Z,27.03
2018-09-03T23:09:06.025Z,28.57
2018-09-03T23:11:35.255Z,29.93
2018-09-03T23:14:04.246Z,26.80
2018-09-03T23:16:33.414Z,29.50
2018-09-03T23:19:02.677Z,27.87
2018-09-03T23:21:32.086Z,28.80
2018-09-03T23:24:01.373Z,28.80
2018-09-03T23:26:30.334Z,27.57
2018-09-03T23:28:59.461Z,27.57
2018-09-03T23:31:28.769Z,26.77
2018-09-03T23:33:58.085Z,29.10
2018-09-03T23:36:27.019Z,29.30
2018-09-03T23:38:55.810Z,28.07
2018-09-03T23:41:24.993Z,28.83
2018-09-03T23:43:54.291Z,28.30
2018-09-03T23:46:23.584Z,29.17
2018-09-03T23:48:52.852Z,30.13
2018-09-03T23:51:21.804Z,29.77
2018-09-03T23:53:50.924Z,30.27
2018-09-03T23:56:19.885Z,28.23
2018-09-03T23:58:49.041Z,30.23
